Terminal Aerodrome Forecast
Issued by NWS Cleveland, OH

Home | Current Version | Previous Version | Graphics & Text | Print | Product List | Glossary On
Versions: 1 2 3 4 5 6 7 8 9 10 11 12 13 14 15 16 17 18 19 20 21
000
FTUS41 KCLE 270500
TAFERI
TAF
KERI 270540Z 2706/2806 26006KT P6SM BKN120 OVC250
     FM271000 36006KT P6SM SCT035 BKN250
     FM271300 34006KT P6SM BKN035
     FM271600 32008KT P6SM SCT035 BKN250=

USA.gov is the U.S. government's official web portal to all federal, state and local government web resources and services.